createdAt,value
2022-09-04T00:01:45.087Z,3.05
2022-09-04T00:04:15.777Z,3.05
2022-09-04T00:07:00.589Z,3.20
2022-09-04T00:09:49.785Z,2.83
2022-09-04T00:12:26.885Z,3.20
2022-09-04T00:15:08.962Z,3.28
2022-09-04T00:17:46.752Z,3.22
2022-09-04T00:20:20.859Z,3.28
2022-09-04T00:23:00.481Z,3.30
2022-09-04T00:25:52.626Z,2.83
2022-09-04T00:28:45.285Z,3.10
2022-09-04T00:31:30.010Z,3.20
2022-09-04T00:34:26.845Z,3.10
2022-09-04T00:37:01.383Z,2.80
2022-09-04T00:39:38.625Z,2.72
2022-09-04T00:42:22.097Z,3.33
2022-09-04T00:45:30.800Z,3.00
2022-09-04T00:47:58.544Z,3.40
2022-09-04T00:50:48.619Z,3.03
2022-09-04T00:53:37.534Z,3.00
2022-09-04T00:56:27.129Z,3.67
2022-09-04T00:59:10.943Z,3.17
2022-09-04T01:01:39.086Z,3.45
2022-09-04T01:04:16.415Z,3.20
2022-09-04T01:07:10.959Z,3.63
2022-09-04T01:10:19.411Z,3.38
2022-09-04T01:13:00.043Z,3.20
2022-09-04T01:15:55.793Z,3.55
2022-09-04T01:18:44.251Z,3.40
2022-09-04T01:21:47.407Z,3.42
2022-09-04T01:24:39.825Z,4.07
2022-09-04T01:27:27.491Z,4.20
2022-09-04T01:30:09.531Z,3.33
2022-09-04T01:32:55.307Z,3.60
2022-09-04T01:35:34.609Z,3.17
2022-09-04T01:38:35.696Z,3.95
2022-09-04T01:41:14.472Z,3.47
2022-09-04T01:43:42.748Z,3.35
2022-09-04T01:46:26.652Z,3.13
2022-09-04T01:48:57.159Z,2.95
2022-09-04T01:51:45.590Z,3.45
2022-09-04T01:54:31.476Z,3.58
2022-09-04T01:57:13.026Z,3.17
2022-09-04T02:00:05.311Z,2.80
2022-09-04T02:02:47.700Z,2.45
2022-09-04T02:05:26.471Z,3.05
2022-09-04T02:08:15.104Z,2.63
2022-09-04T02:10:56.391Z,2.92
2022-09-04T02:13:44.987Z,2.38
2022-09-04T02:16:20.029Z,3.17
2022-09-04T02:19:05.537Z,2.60
2022-09-04T02:21:40.715Z,3.03
2022-09-04T02:24:23.340Z,2.80
2022-09-04T02:26:59.510Z,3.13
2022-09-04T02:29:53.266Z,2.40
2022-09-04T02:32:23.612Z,2.42
2022-09-04T02:35:03.068Z,2.25
2022-09-04T02:37:39.225Z,2.85
2022-09-04T02:40:31.607Z,2.70
2022-09-04T02:43:21.335Z,2.63
2022-09-04T02:45:54.929Z,2.47
2022-09-04T02:48:35.357Z,2.63
2022-09-04T02:51:38.766Z,2.53
2022-09-04T02:54:12.856Z,3.03
2022-09-04T02:56:52.381Z,2.70
2022-09-04T02:59:50.401Z,3.38
2022-09-04T03:02:27.599Z,3.65
2022-09-04T03:05:25.235Z,3.63
2022-09-04T03:08:00.578Z,3.70
2022-09-04T03:10:42.933Z,3.70
2022-09-04T03:13:29.866Z,3.55
2022-09-04T03:16:12.048Z,3.13
2022-09-04T03:19:03.966Z,3.10
2022-09-04T03:21:50.187Z,2.78
2022-09-04T03:24:23.591Z,2.92
2022-09-04T03:26:55.243Z,2.92
2022-09-04T03:29:46.852Z,3.72
2022-09-04T03:32:40.399Z,3.55
2022-09-04T03:35:22.881Z,3.30
2022-09-04T03:38:28.686Z,3.22
2022-09-04T03:41:08.613Z,3.10
2022-09-04T03:43:45.075Z,3.20
2022-09-04T03:46:24.826Z,3.03
2022-09-04T03:49:00.485Z,3.00
2022-09-04T03:51:45.595Z,2.58
2022-09-04T03:54:39.232Z,3.17
2022-09-04T03:57:09.513Z,2.80
2022-09-04T04:00:08.573Z,2.97
2022-09-04T04:03:08.878Z,3.40
2022-09-04T04:05:57.432Z,3.10
2022-09-04T04:09:16.849Z,3.35
2022-09-04T04:12:01.700Z,3.63
2022-09-04T04:14:32.698Z,4.05
2022-09-04T04:17:06.114Z,3.47
2022-09-04T04:19:45.280Z,4.18
2022-09-04T04:22:40.456Z,5.05
2022-09-04T04:25:33.912Z,3.42
2022-09-04T04:28:20.255Z,3.80
2022-09-04T04:30:52.961Z,3.42
2022-09-04T04:33:36.969Z,3.55
2022-09-04T04:36:15.397Z,3.63
2022-09-04T04:38:46.800Z,3.60
2022-09-04T04:41:30.891Z,3.78
2022-09-04T04:44:17.008Z,3.50
2022-09-04T04:47:27.677Z,3.92
2022-09-04T04:50:13.424Z,3.35
2022-09-04T04:52:49.806Z,4.13
2022-09-04T04:55:50.500Z,4.10
2022-09-04T04:58:33.060Z,3.88
2022-09-04T05:01:31.207Z,4.80
2022-09-04T05:04:23.288Z,4.22
2022-09-04T05:07:23.841Z,3.90
2022-09-04T05:10:14.293Z,4.38
2022-09-04T05:13:12.347Z,3.85
2022-09-04T05:16:07.824Z,4.18
2022-09-04T05:18:48.803Z,4.00
2022-09-04T05:21:36.323Z,5.55
2022-09-04T05:24:12.533Z,4.20
2022-09-04T05:27:09.613Z,4.80
2022-09-04T05:29:51.960Z,4.53
2022-09-04T05:32:30.325Z,5.07
2022-09-04T05:35:13.194Z,4.45
2022-09-04T05:37:40.858Z,4.93
2022-09-04T05:40:29.585Z,4.30
2022-09-04T05:43:30.219Z,4.53
2022-09-04T05:46:22.651Z,4.10
2022-09-04T05:49:16.282Z,5.20
2022-09-04T05:52:14.692Z,4.80
2022-09-04T05:55:03.836Z,4.75
2022-09-04T05:57:34.087Z,4.70
2022-09-04T06:00:04.983Z,4.55
2022-09-04T06:02:58.406Z,4.68
2022-09-04T06:05:51.023Z,4.10
2022-09-04T06:09:16.059Z,4.50
2022-09-04T06:11:55.109Z,4.22
2022-09-04T06:14:34.439Z,4.28
2022-09-04T06:17:01.880Z,4.93
2022-09-04T06:19:35.412Z,4.35
2022-09-04T06:24:38.100Z,4.65
2022-09-04T06:27:50.277Z,5.00
2022-09-04T06:30:18.472Z,4.20
2022-09-04T06:32:58.057Z,4.25
2022-09-04T06:35:27.000Z,3.65
2022-09-04T06:38:22.275Z,3.38
2022-09-04T06:41:02.225Z,4.10
2022-09-04T06:43:49.408Z,4.07
2022-09-04T06:46:34.034Z,4.22
2022-09-04T06:49:10.821Z,4.22
2022-09-04T06:52:07.521Z,4.35
2022-09-04T06:54:52.445Z,5.82
2022-09-04T06:57:23.006Z,5.80
2022-09-04T07:00:02.119Z,5.03
2022-09-04T07:03:04.907Z,4.57
2022-09-04T07:05:50.323Z,4.05
2022-09-04T07:08:39.576Z,4.30
2022-09-04T07:11:37.966Z,3.58
2022-09-04T07:14:54.520Z,2.83
2022-09-04T07:17:24.789Z,2.90
2022-09-04T07:20:16.605Z,3.58
2022-09-04T07:23:14.001Z,3.22
2022-09-04T07:25:49.670Z,3.20
2022-09-04T07:28:33.597Z,2.67
2022-09-04T07:31:27.133Z,3.38
2022-09-04T07:34:00.574Z,2.75
2022-09-04T07:36:38.884Z,2.80
2022-09-04T07:39:28.670Z,2.50
2022-09-04T07:42:28.142Z,2.00
2022-09-04T07:45:22.573Z,2.33
2022-09-04T07:48:29.485Z,2.10
2022-09-04T07:51:04.931Z,1.90
2022-09-04T07:53:32.524Z,2.00
2022-09-04T07:56:06.929Z,2.47
2022-09-04T07:59:01.221Z,2.30
2022-09-04T08:02:02.510Z,2.35
2022-09-04T08:04:44.500Z,2.30
2022-09-04T08:07:24.828Z,2.88
2022-09-04T08:09:58.141Z,2.13
2022-09-04T08:12:56.334Z,2.60
2022-09-04T08:15:29.746Z,3.42
2022-09-04T08:18:47.988Z,2.80
2022-09-04T08:21:38.047Z,3.00
2022-09-04T08:24:26.888Z,2.78
2022-09-04T08:26:58.099Z,3.00
2022-09-04T08:29:47.108Z,3.40
2022-09-04T08:32:18.237Z,3.25
2022-09-04T08:34:53.052Z,3.42
2022-09-04T08:37:37.964Z,3.60
2022-09-04T08:40:32.819Z,3.30
2022-09-04T08:43:33.246Z,3.60
2022-09-04T08:46:06.564Z,3.35
2022-09-04T08:51:40.356Z,4.88
2022-09-04T08:54:14.745Z,3.88
2022-09-04T08:56:47.304Z,3.83
2022-09-04T08:59:59.703Z,5.18
2022-09-04T09:02:40.614Z,4.78
2022-09-04T09:05:25.859Z,5.18
2022-09-04T09:08:33.161Z,4.50
2022-09-04T09:11:18.684Z,5.13
2022-09-04T09:14:11.084Z,5.05
2022-09-04T09:16:50.718Z,4.90
2022-09-04T09:19:43.433Z,5.30
2022-09-04T09:22:23.524Z,5.85
2022-09-04T09:24:56.939Z,5.00
2022-09-04T09:27:46.101Z,5.15
2022-09-04T09:30:18.348Z,5.15
2022-09-04T09:33:20.760Z,4.80
2022-09-04T09:36:45.324Z,4.53
2022-09-04T09:42:38.018Z,5.03
2022-09-04T09:45:25.382Z,5.72
2022-09-04T09:47:52.954Z,5.30
2022-09-04T09:50:28.984Z,5.00
2022-09-04T09:53:29.906Z,5.53
2022-09-04T09:56:00.421Z,5.38
2022-09-04T09:58:49.642Z,4.63
2022-09-04T10:01:25.979Z,5.43
2022-09-04T10:04:40.117Z,5.95
2022-09-04T10:07:29.852Z,6.05
2022-09-04T10:10:34.893Z,5.93
2022-09-04T10:13:14.154Z,5.07
2022-09-04T10:16:19.878Z,10.57
2022-09-04T10:19:16.579Z,5.82
2022-09-04T10:22:22.207Z,5.60
2022-09-04T10:25:28.843Z,5.70
2022-09-04T10:28:22.247Z,5.88
2022-09-04T10:31:11.731Z,5.55
2022-09-04T10:34:01.138Z,5.78
2022-09-04T10:36:54.136Z,4.35
2022-09-04T10:40:08.978Z,4.18
2022-09-04T10:42:51.835Z,4.53
2022-09-04T10:45:32.640Z,5.50
2022-09-04T10:48:02.087Z,5.05
2022-09-04T10:50:35.732Z,4.25
2022-09-04T10:53:28.647Z,4.28
2022-09-04T10:56:30.069Z,3.95
2022-09-04T10:59:16.243Z,3.72
2022-09-04T11:02:05.022Z,4.05
2022-09-04T11:04:35.736Z,4.00
2022-09-04T11:07:10.226Z,4.63
2022-09-04T11:10:25.169Z,4.65
2022-09-04T11:13:14.203Z,4.72
2022-09-04T11:16:00.554Z,4.45
2022-09-04T11:18:58.892Z,4.63
2022-09-04T11:21:51.381Z,3.58
2022-09-04T11:24:45.825Z,4.25
2022-09-04T11:27:33.436Z,3.83
2022-09-04T11:30:17.830Z,3.55
2022-09-04T11:33:08.820Z,4.10
2022-09-04T11:35:55.421Z,3.95
2022-09-04T11:39:06.738Z,4.30
2022-09-04T11:41:47.731Z,4.43
2022-09-04T11:44:52.755Z,4.38
2022-09-04T11:47:35.147Z,3.10
2022-09-04T11:50:14.608Z,4.23
2022-09-04T11:53:00.440Z,3.83
2022-09-04T11:55:40.043Z,3.78
2022-09-04T11:58:13.726Z,3.42
2022-09-04T12:01:00.443Z,3.17
2022-09-04T12:03:59.878Z,4.32
2022-09-04T12:06:30.199Z,3.50
2022-09-04T12:09:19.066Z,3.75
2022-09-04T12:12:16.564Z,2.92
2022-09-04T12:15:07.611Z,3.30
2022-09-04T12:17:56.428Z,2.85
2022-09-04T12:20:59.276Z,4.05
2022-09-04T12:23:52.597Z,4.10
2022-09-04T12:26:32.308Z,3.50
2022-09-04T12:29:11.950Z,4.45
2022-09-04T12:32:20.676Z,4.10
2022-09-04T12:35:36.263Z,4.30
2022-09-04T12:38:43.981Z,3.83
2022-09-04T12:41:19.464Z,4.25
2022-09-04T12:44:18.480Z,4.38
2022-09-04T12:47:04.805Z,2.50
2022-09-04T12:49:45.076Z,3.30
2022-09-04T12:52:30.701Z,4.20
2022-09-04T12:55:04.852Z,4.70
2022-09-04T12:57:55.711Z,3.92
2022-09-04T13:00:31.793Z,4.13
2022-09-04T13:03:26.150Z,3.78
2022-09-04T13:06:15.397Z,3.50
2022-09-04T13:08:53.646Z,3.25
2022-09-04T13:11:52.021Z,3.08
2022-09-04T13:14:50.290Z,3.78
2022-09-04T13:17:53.018Z,3.55
2022-09-04T13:20:51.544Z,2.78
2022-09-04T13:23:46.342Z,3.67
2022-09-04T13:26:29.791Z,3.47
2022-09-04T13:29:26.933Z,3.35
2022-09-04T13:32:17.035Z,2.95
2022-09-04T13:35:17.338Z,3.28
2022-09-04T13:38:19.297Z,3.05
2022-09-04T13:41:25.263Z,3.38
2022-09-04T13:44:22.882Z,3.58
2022-09-04T13:47:03.706Z,3.92
2022-09-04T13:49:42.442Z,3.20
2022-09-04T13:52:18.112Z,2.80
2022-09-04T13:54:53.321Z,3.05
2022-09-04T13:57:27.947Z,3.33
2022-09-04T14:00:02.942Z,2.88
2022-09-04T14:02:36.573Z,2.60
2022-09-04T14:05:13.892Z,3.05
2022-09-04T14:07:49.289Z,3.38
2022-09-04T14:10:22.908Z,3.35
2022-09-04T14:13:15.277Z,3.40
2022-09-04T14:16:11.691Z,3.38
2022-09-04T14:19:15.627Z,3.13
2022-09-04T14:22:08.384Z,3.10
2022-09-04T14:24:51.725Z,3.20
2022-09-04T14:27:44.160Z,3.25
2022-09-04T14:30:16.221Z,2.70
2022-09-04T14:33:07.616Z,3.70
2022-09-04T14:36:12.521Z,2.95
2022-09-04T14:41:35.944Z,3.00
2022-09-04T14:44:18.823Z,2.97
2022-09-04T14:47:17.194Z,3.00
2022-09-04T14:49:48.638Z,2.60
2022-09-04T14:52:29.326Z,2.80
2022-09-04T14:54:59.872Z,3.05
2022-09-04T14:57:41.407Z,3.33
2022-09-04T15:00:11.608Z,3.00
2022-09-04T15:02:50.885Z,3.65
2022-09-04T15:05:23.786Z,3.47
2022-09-04T15:07:55.788Z,3.22
2022-09-04T15:10:33.042Z,3.10
2022-09-04T15:13:38.881Z,2.95
2022-09-04T15:16:06.785Z,3.20
2022-09-04T15:18:53.655Z,2.80
2022-09-04T15:21:31.592Z,3.22
2022-09-04T15:24:30.224Z,3.47
2022-09-04T15:27:05.726Z,3.70
2022-09-04T15:29:39.027Z,3.53
2022-09-04T15:32:13.816Z,2.90
2022-09-04T15:34:42.492Z,3.50
2022-09-04T15:37:24.799Z,3.90
2022-09-04T15:40:21.692Z,2.88
2022-09-04T15:43:10.127Z,3.33
2022-09-04T15:45:59.254Z,3.75
2022-09-04T15:48:48.067Z,2.92
2022-09-04T15:51:21.498Z,2.70
2022-09-04T15:54:06.740Z,3.05
2022-09-04T15:56:42.014Z,3.13
2022-09-04T15:59:22.563Z,2.92
2022-09-04T16:02:00.763Z,2.72
2022-09-04T16:04:37.657Z,3.22
2022-09-04T16:07:19.701Z,3.40
2022-09-04T16:09:54.768Z,3.28
2022-09-04T16:12:30.775Z,3.20
2022-09-04T16:15:03.049Z,3.15
2022-09-04T16:20:26.934Z,3.25
2022-09-04T16:23:01.021Z,3.23
2022-09-04T16:25:40.292Z,3.40
2022-09-04T16:28:22.743Z,2.70
2022-09-04T16:31:00.170Z,3.28
2022-09-04T16:33:33.183Z,3.05
2022-09-04T16:36:11.447Z,2.80
2022-09-04T16:38:57.551Z,3.13
2022-09-04T16:41:37.703Z,2.75
2022-09-04T16:44:34.432Z,3.13
2022-09-04T16:47:15.104Z,2.65
2022-09-04T16:49:54.846Z,3.50
2022-09-04T16:52:40.303Z,3.00
2022-09-04T16:55:14.063Z,2.65
2022-09-04T16:58:08.834Z,3.17
2022-09-04T17:01:00.563Z,3.35
2022-09-04T17:03:52.536Z,2.78
2022-09-04T17:07:11.114Z,2.92
2022-09-04T17:09:57.528Z,3.55
2022-09-04T17:12:27.945Z,3.30
2022-09-04T17:15:34.397Z,3.00
2022-09-04T17:18:07.929Z,3.10
2022-09-04T17:22:44.860Z,3.00
2022-09-04T17:29:03.950Z,3.22
2022-09-04T17:29:10.277Z,2.95
2022-09-04T17:30:02.056Z,3.15
2022-09-04T17:38:50.993Z,3.33
2022-09-04T17:40:39.314Z,3.65
2022-09-04T17:40:55.437Z,3.60
2022-09-04T17:42:33.496Z,3.63
2022-09-04T17:45:09.795Z,3.42
2022-09-04T17:47:45.533Z,3.28
2022-09-04T17:50:16.517Z,3.72
2022-09-04T17:53:04.806Z,3.53
2022-09-04T17:55:39.103Z,3.10
2022-09-04T17:58:37.725Z,4.03
2022-09-04T18:01:14.301Z,3.00
2022-09-04T18:04:21.540Z,3.45
2022-09-04T18:06:57.401Z,3.35
2022-09-04T18:09:39.803Z,3.28
2022-09-04T18:12:40.949Z,3.60
2022-09-04T18:15:33.925Z,3.72
2022-09-04T18:18:12.272Z,3.55
2022-09-04T18:20:51.811Z,3.50
2022-09-04T18:23:51.488Z,3.08
2022-09-04T18:26:20.237Z,3.97
2022-09-04T18:29:35.630Z,3.47
2022-09-04T18:37:05.561Z,3.70
2022-09-04T18:37:22.873Z,3.60
2022-09-04T18:38:41.552Z,3.05
2022-09-04T18:44:44.551Z,3.38
2022-09-04T18:50:29.801Z,3.25
2022-09-04T18:50:35.751Z,3.90
2022-09-04T18:51:12.493Z,3.70
2022-09-04T18:53:33.005Z,3.35
2022-09-04T18:56:20.858Z,3.70
2022-09-04T18:58:54.275Z,2.63
2022-09-04T19:01:37.053Z,3.03
2022-09-04T19:04:22.940Z,3.60
2022-09-04T19:07:06.853Z,3.58
2022-09-04T19:09:48.682Z,3.95
2022-09-04T19:12:46.953Z,3.40
2022-09-04T19:15:27.536Z,3.30
2022-09-04T19:18:19.372Z,2.83
2022-09-04T19:20:52.187Z,3.15
2022-09-04T19:23:28.187Z,3.78
2022-09-04T19:26:04.999Z,4.07
2022-09-04T19:28:52.358Z,4.05
2022-09-04T19:31:30.054Z,3.63
2022-09-04T19:34:08.136Z,3.72
2022-09-04T19:36:44.815Z,3.67
2022-09-04T19:43:51.308Z,3.78
2022-09-04T19:45:59.053Z,3.53
2022-09-04T19:46:11.957Z,3.80
2022-09-04T19:49:50.886Z,3.60
2022-09-04T19:53:22.583Z,3.72
2022-09-04T19:54:38.281Z,4.22
2022-09-04T19:57:33.690Z,3.97
2022-09-04T20:00:38.233Z,4.50
2022-09-04T20:03:04.029Z,4.93
2022-09-04T20:05:34.193Z,4.57
2022-09-04T20:08:13.738Z,4.45
2022-09-04T20:10:47.390Z,4.88
2022-09-04T20:13:30.178Z,4.03
2022-09-04T20:16:17.052Z,3.70
2022-09-04T20:19:09.472Z,4.68
2022-09-04T20:21:51.108Z,4.60
2022-09-04T20:24:43.439Z,4.28
2022-09-04T20:27:36.176Z,4.78
2022-09-04T20:30:12.199Z,5.75
2022-09-04T20:32:49.520Z,5.82
2022-09-04T20:35:37.971Z,5.47
2022-09-04T20:38:26.150Z,4.70
2022-09-04T20:41:07.806Z,4.28
2022-09-04T20:43:47.893Z,5.22
2022-09-04T20:52:41.029Z,4.72
2022-09-04T20:53:00.037Z,4.70
2022-09-04T20:53:07.981Z,4.40
2022-09-04T20:55:46.433Z,3.78
2022-09-04T21:01:56.415Z,3.60
2022-09-04T21:03:18.411Z,4.15
2022-09-04T21:04:14.389Z,4.25
2022-09-04T21:06:56.877Z,4.03
2022-09-04T21:09:35.484Z,3.65
2022-09-04T21:12:22.075Z,3.95
2022-09-04T21:14:57.914Z,3.90
2022-09-04T21:17:46.141Z,4.80
2022-09-04T21:20:16.822Z,3.80
2022-09-04T21:23:05.997Z,3.50
2022-09-04T21:26:01.985Z,3.90
2022-09-04T21:28:52.453Z,4.20
2022-09-04T21:31:28.480Z,4.50
2022-09-04T21:34:30.755Z,3.58
2022-09-04T21:37:33.513Z,3.47
2022-09-04T21:40:50.424Z,3.88
2022-09-04T21:43:36.016Z,3.53
2022-09-04T21:46:38.074Z,3.35
2022-09-04T21:49:29.296Z,3.67
2022-09-04T21:51:59.739Z,3.00
2022-09-04T21:59:16.769Z,3.53
2022-09-04T22:02:42.743Z,3.50
2022-09-04T22:02:43.459Z,3.28
2022-09-04T22:04:30.146Z,3.30
2022-09-04T22:10:14.023Z,3.50
2022-09-04T22:13:31.985Z,3.40
2022-09-04T22:13:47.911Z,2.92
2022-09-04T22:16:46.165Z,2.80
2022-09-04T22:19:29.088Z,3.00
2022-09-04T22:22:14.835Z,2.85
2022-09-04T22:25:11.690Z,3.03
2022-09-04T22:28:04.686Z,2.92
2022-09-04T22:30:36.692Z,2.85
2022-09-04T22:33:32.461Z,2.95
2022-09-04T22:36:30.379Z,2.97
2022-09-04T22:39:20.029Z,2.33
2022-09-04T22:42:29.941Z,3.10
2022-09-04T22:45:48.795Z,2.80
2022-09-04T22:48:20.020Z,3.22
2022-09-04T22:51:06.215Z,2.80
2022-09-04T22:53:48.780Z,3.35
2022-09-04T22:56:29.670Z,3.17
2022-09-04T22:59:26.516Z,3.00
2022-09-04T23:02:46.036Z,3.13
2022-09-04T23:05:23.171Z,3.20
2022-09-04T23:13:43.487Z,2.80
2022-09-04T23:13:57.111Z,3.10
2022-09-04T23:14:16.072Z,3.10
2022-09-04T23:16:49.503Z,3.03
2022-09-04T23:21:22.187Z,3.22
2022-09-04T23:26:45.851Z,3.65
2022-09-04T23:26:48.446Z,3.13
2022-09-04T23:28:54.777Z,3.30
2022-09-04T23:31:39.790Z,3.03
2022-09-04T23:34:25.504Z,2.80
2022-09-04T23:37:14.352Z,3.00
2022-09-04T23:39:58.792Z,2.88
2022-09-04T23:42:45.317Z,2.72
2022-09-04T23:45:57.902Z,2.80
2022-09-04T23:48:34.471Z,3.22
2022-09-04T23:51:10.871Z,2.97
2022-09-04T23:54:18.280Z,2.85
2022-09-04T23:57:08.102Z,2.95
2022-09-04T23:59:45.948Z,3.05
